sensor_id;sensor_type;location;lat;lon;timestamp;temperature;humidity
55008;DHT22;40902;45.116;21.296;2022-12-07T00:00:43;230.40;2252.80
55008;DHT22;40902;45.116;21.296;2022-12-07T00:03:09;230.40;2252.80
55008;DHT22;40902;45.116;21.296;2022-12-07T00:05:34;230.40;2252.80
55008;DHT22;40902;45.116;21.296;2022-12-07T00:08:00;230.40;2252.80
55008;DHT22;40902;45.116;21.296;2022-12-07T00:10:26;230.50;2252.80
55008;DHT22;40902;45.116;21.296;2022-12-07T00:12:51;230.50;2252.80
55008;DHT22;40902;45.116;21.296;2022-12-07T00:15:17;230.50;2252.80
55008;DHT22;40902;45.116;21.296;2022-12-07T00:17:43;230.60;2252.80
55008;DHT22;40902;45.116;21.296;2022-12-07T00:20:09;230.60;2252.80
55008;DHT22;40902;45.116;21.296;2022-12-07T00:22:34;230.60;2252.80
55008;DHT22;40902;45.116;21.296;2022-12-07T00:25:00;230.60;2252.80
55008;DHT22;40902;45.116;21.296;2022-12-07T00:27:27;230.50;2252.80
55008;DHT22;40902;45.116;21.296;2022-12-07T00:29:52;230.50;2252.80
55008;DHT22;40902;45.116;21.296;2022-12-07T00:32:18;230.50;2252.80
55008;DHT22;40902;45.116;21.296;2022-12-07T00:34:44;230.60;2252.80
55008;DHT22;40902;45.116;21.296;2022-12-07T00:37:10;230.70;2252.80
55008;DHT22;40902;45.116;21.296;2022-12-07T00:39:35;230.70;2252.80
55008;DHT22;40902;45.116;21.296;2022-12-07T00:42:01;230.60;2252.80
55008;DHT22;40902;45.116;21.296;2022-12-07T00:44:27;230.60;2252.80
55008;DHT22;40902;45.116;21.296;2022-12-07T00:46:52;230.60;2252.80
55008;DHT22;40902;45.116;21.296;2022-12-07T00:49:18;230.60;2252.80
55008;DHT22;40902;45.116;21.296;2022-12-07T00:51:44;230.60;2252.80
55008;DHT22;40902;45.116;21.296;2022-12-07T00:54:09;230.60;2252.80
55008;DHT22;40902;45.116;21.296;2022-12-07T00:56:35;230.60;2252.80
55008;DHT22;40902;45.116;21.296;2022-12-07T00:59:02;230.60;2252.80
55008;DHT22;40902;45.116;21.296;2022-12-07T01:01:32;230.50;2252.80
55008;DHT22;40902;45.116;21.296;2022-12-07T01:03:58;230.50;2252.80
55008;DHT22;40902;45.116;21.296;2022-12-07T01:06:26;230.40;2252.80
55008;DHT22;40902;45.116;21.296;2022-12-07T01:08:53;230.40;2252.80
55008;DHT22;40902;45.116;21.296;2022-12-07T01:11:22;230.40;2252.80
55008;DHT22;40902;45.116;21.296;2022-12-07T01:13:51;230.40;2252.80
55008;DHT22;40902;45.116;21.296;2022-12-07T01:16:17;230.40;2252.80
55008;DHT22;40902;45.116;21.296;2022-12-07T01:18:46;230.40;2252.80
55008;DHT22;40902;45.116;21.296;2022-12-07T01:21:16;230.40;2252.80
55008;DHT22;40902;45.116;21.296;2022-12-07T01:23:44;230.40;2252.80
55008;DHT22;40902;45.116;21.296;2022-12-07T01:26:12;230.40;2252.80
55008;DHT22;40902;45.116;21.296;2022-12-07T01:28:38;230.40;2252.80
55008;DHT22;40902;45.116;21.296;2022-12-07T01:31:06;230.40;2252.80
55008;DHT22;40902;45.116;21.296;2022-12-07T01:33:35;230.40;2252.80
55008;DHT22;40902;45.116;21.296;2022-12-07T01:36:13;230.50;2252.80
55008;DHT22;40902;45.116;21.296;2022-12-07T01:38:39;230.50;2252.80
55008;DHT22;40902;45.116;21.296;2022-12-07T01:41:05;230.60;2252.80
55008;DHT22;40902;45.116;21.296;2022-12-07T01:43:33;230.60;2252.80
55008;DHT22;40902;45.116;21.296;2022-12-07T01:46:01;230.70;2252.80
55008;DHT22;40902;45.116;21.296;2022-12-07T01:48:34;230.60;2252.80
55008;DHT22;40902;45.116;21.296;2022-12-07T01:51:05;230.70;2252.80
55008;DHT22;40902;45.116;21.296;2022-12-07T01:53:36;230.60;2252.80
55008;DHT22;40902;45.116;21.296;2022-12-07T01:56:03;230.60;2252.80
55008;DHT22;40902;45.116;21.296;2022-12-07T01:58:29;230.60;2252.80
55008;DHT22;40902;45.116;21.296;2022-12-07T02:00:55;230.50;2252.80
55008;DHT22;40902;45.116;21.296;2022-12-07T02:03:39;230.50;2252.80
55008;DHT22;40902;45.116;21.296;2022-12-07T02:06:07;230.50;2252.80
55008;DHT22;40902;45.116;21.296;2022-12-07T02:08:33;230.50;2252.80
55008;DHT22;40902;45.116;21.296;2022-12-07T02:11:01;230.60;2252.80
55008;DHT22;40902;45.116;21.296;2022-12-07T02:13:30;230.50;2252.80
55008;DHT22;40902;45.116;21.296;2022-12-07T02:22:15;230.40;2252.80
55008;DHT22;40902;45.116;21.296;2022-12-07T02:30:19;230.40;2252.80
55008;DHT22;40902;45.116;21.296;2022-12-07T02:35:21;230.50;2252.80
55008;DHT22;40902;45.116;21.296;2022-12-07T02:40:36;230.50;2252.80
55008;DHT22;40902;45.116;21.296;2022-12-07T02:43:23;230.50;2252.80
55008;DHT22;40902;45.116;21.296;2022-12-07T02:45:50;230.50;2252.80
55008;DHT22;40902;45.116;21.296;2022-12-07T02:48:18;230.50;2252.80
55008;DHT22;40902;45.116;21.296;2022-12-07T02:50:49;230.50;2252.80
55008;DHT22;40902;45.116;21.296;2022-12-07T02:53:39;230.50;2252.80
55008;DHT22;40902;45.116;21.296;2022-12-07T02:58:58;230.60;2252.80
55008;DHT22;40902;45.116;21.296;2022-12-07T03:04:24;230.60;2252.80
55008;DHT22;40902;45.116;21.296;2022-12-07T03:06:58;230.70;2252.80
55008;DHT22;40902;45.116;21.296;2022-12-07T03:18:04;230.60;2252.80
55008;DHT22;40902;45.116;21.296;2022-12-07T03:20:31;230.60;2252.80
55008;DHT22;40902;45.116;21.296;2022-12-07T03:22:59;230.60;2252.80
55008;DHT22;40902;45.116;21.296;2022-12-07T03:25:26;230.60;2252.80
55008;DHT22;40902;45.116;21.296;2022-12-07T03:27:53;230.60;2252.80
55008;DHT22;40902;45.116;21.296;2022-12-07T03:30:24;230.60;2252.80
55008;DHT22;40902;45.116;21.296;2022-12-07T03:32:54;230.60;2252.80
55008;DHT22;40902;45.116;21.296;2022-12-07T03:38:40;230.50;2252.80
55008;DHT22;40902;45.116;21.296;2022-12-07T03:43:18;230.60;2252.80
55008;DHT22;40902;45.116;21.296;2022-12-07T03:46:00;230.50;2252.80
55008;DHT22;40902;45.116;21.296;2022-12-07T03:51:31;230.60;2252.80
55008;DHT22;40902;45.116;21.296;2022-12-07T03:54:41;230.60;2252.80
55008;DHT22;40902;45.116;21.296;2022-12-07T03:57:01;230.60;2252.80
55008;DHT22;40902;45.116;21.296;2022-12-07T03:59:28;230.60;2252.80
55008;DHT22;40902;45.116;21.296;2022-12-07T04:01:59;230.60;2252.80
55008;DHT22;40902;45.116;21.296;2022-12-07T04:04:27;230.60;2252.80
55008;DHT22;40902;45.116;21.296;2022-12-07T04:06:54;230.60;2252.80
55008;DHT22;40902;45.116;21.296;2022-12-07T04:09:20;230.60;2252.80
55008;DHT22;40902;45.116;21.296;2022-12-07T04:11:46;230.60;2252.80
55008;DHT22;40902;45.116;21.296;2022-12-07T04:14:11;230.60;2252.80
55008;DHT22;40902;45.116;21.296;2022-12-07T04:16:51;230.60;2252.80
55008;DHT22;40902;45.116;21.296;2022-12-07T04:19:19;230.60;2252.80
55008;DHT22;40902;45.116;21.296;2022-12-07T04:21:46;230.60;2252.80
55008;DHT22;40902;45.116;21.296;2022-12-07T04:24:13;230.60;2252.80
55008;DHT22;40902;45.116;21.296;2022-12-07T04:26:40;230.60;2252.80
55008;DHT22;40902;45.116;21.296;2022-12-07T04:29:06;230.60;2252.80
55008;DHT22;40902;45.116;21.296;2022-12-07T04:31:32;230.60;2252.80
55008;DHT22;40902;45.116;21.296;2022-12-07T04:33:58;230.60;2252.80
55008;DHT22;40902;45.116;21.296;2022-12-07T04:36:24;230.50;2252.80
55008;DHT22;40902;45.116;21.296;2022-12-07T04:38:52;230.60;2252.80
55008;DHT22;40902;45.116;21.296;2022-12-07T04:41:18;230.50;2252.80
55008;DHT22;40902;45.116;21.296;2022-12-07T04:43:44;230.50;2252.80
55008;DHT22;40902;45.116;21.296;2022-12-07T04:46:10;230.50;2252.80
55008;DHT22;40902;45.116;21.296;2022-12-07T04:48:36;230.60;2252.80
55008;DHT22;40902;45.116;21.296;2022-12-07T04:51:03;230.60;2252.80
55008;DHT22;40902;45.116;21.296;2022-12-07T04:53:29;230.50;2252.80
55008;DHT22;40902;45.116;21.296;2022-12-07T04:55:54;230.50;2252.80
55008;DHT22;40902;45.116;21.296;2022-12-07T04:58:20;230.60;2252.80
55008;DHT22;40902;45.116;21.296;2022-12-07T05:00:46;230.50;2252.80
55008;DHT22;40902;45.116;21.296;2022-12-07T05:03:12;230.50;2252.80
55008;DHT22;40902;45.116;21.296;2022-12-07T05:05:40;230.50;2252.80
55008;DHT22;40902;45.116;21.296;2022-12-07T05:08:07;230.50;2252.80
55008;DHT22;40902;45.116;21.296;2022-12-07T05:10:32;230.50;2252.80
55008;DHT22;40902;45.116;21.296;2022-12-07T05:12:58;230.50;2252.80
55008;DHT22;40902;45.116;21.296;2022-12-07T05:15:24;230.60;2252.80
55008;DHT22;40902;45.116;21.296;2022-12-07T05:17:50;230.60;2252.80
55008;DHT22;40902;45.116;21.296;2022-12-07T05:20:17;230.60;2252.80
55008;DHT22;40902;45.116;21.296;2022-12-07T05:22:43;230.60;2252.80
55008;DHT22;40902;45.116;21.296;2022-12-07T05:25:09;230.60;2252.80
55008;DHT22;40902;45.116;21.296;2022-12-07T05:27:34;230.70;2252.80
55008;DHT22;40902;45.116;21.296;2022-12-07T05:30:00;230.70;2252.80
55008;DHT22;40902;45.116;21.296;2022-12-07T05:32:26;230.70;2252.80
55008;DHT22;40902;45.116;21.296;2022-12-07T05:34:51;230.70;2252.80
55008;DHT22;40902;45.116;21.296;2022-12-07T05:37:20;230.70;2252.80
55008;DHT22;40902;45.116;21.296;2022-12-07T05:39:45;230.90;2252.80
55008;DHT22;40902;45.116;21.296;2022-12-07T05:42:11;230.90;2252.80
55008;DHT22;40902;45.116;21.296;2022-12-07T05:44:37;230.90;2252.80
55008;DHT22;40902;45.116;21.296;2022-12-07T05:47:03;230.90;2252.80
55008;DHT22;40902;45.116;21.296;2022-12-07T05:49:29;230.90;2252.80
55008;DHT22;40902;45.116;21.296;2022-12-07T05:51:55;230.90;2252.80
55008;DHT22;40902;45.116;21.296;2022-12-07T05:54:20;230.90;2252.80
55008;DHT22;40902;45.116;21.296;2022-12-07T05:56:46;230.80;2252.80
55008;DHT22;40902;45.116;21.296;2022-12-07T05:59:12;230.80;2252.80
55008;DHT22;40902;45.116;21.296;2022-12-07T06:01:55;230.90;2252.80
55008;DHT22;40902;45.116;21.296;2022-12-07T06:04:23;230.90;2252.80
55008;DHT22;40902;45.116;21.296;2022-12-07T06:06:49;231.00;2252.80
55008;DHT22;40902;45.116;21.296;2022-12-07T06:09:15;231.00;2252.80
55008;DHT22;40902;45.116;21.296;2022-12-07T06:11:41;231.10;2252.80
55008;DHT22;40902;45.116;21.296;2022-12-07T06:14:25;231.10;2252.80
55008;DHT22;40902;45.116;21.296;2022-12-07T06:16:51;231.00;2252.80
55008;DHT22;40902;45.116;21.296;2022-12-07T06:19:17;230.90;2252.80
55008;DHT22;40902;45.116;21.296;2022-12-07T06:21:43;230.90;2252.80
55008;DHT22;40902;45.116;21.296;2022-12-07T06:24:13;231.00;2252.80
55008;DHT22;40902;45.116;21.296;2022-12-07T06:26:39;231.00;2252.80
55008;DHT22;40902;45.116;21.296;2022-12-07T06:29:05;231.00;2252.80
55008;DHT22;40902;45.116;21.296;2022-12-07T06:31:31;231.10;2252.80
55008;DHT22;40902;45.116;21.296;2022-12-07T06:34:07;231.10;2252.80
55008;DHT22;40902;45.116;21.296;2022-12-07T06:36:34;231.10;2252.80
55008;DHT22;40902;45.116;21.296;2022-12-07T06:39:00;231.10;2252.80
55008;DHT22;40902;45.116;21.296;2022-12-07T06:41:25;231.10;2252.80
55008;DHT22;40902;45.116;21.296;2022-12-07T06:43:51;231.10;2252.80
55008;DHT22;40902;45.116;21.296;2022-12-07T06:46:17;231.00;2252.80
55008;DHT22;40902;45.116;21.296;2022-12-07T06:48:43;231.10;2252.80
55008;DHT22;40902;45.116;21.296;2022-12-07T06:51:10;231.10;2252.80
55008;DHT22;40902;45.116;21.296;2022-12-07T06:53:36;231.10;2252.80
55008;DHT22;40902;45.116;21.296;2022-12-07T06:56:03;231.10;2252.80
55008;DHT22;40902;45.116;21.296;2022-12-07T06:58:29;231.10;2252.80
55008;DHT22;40902;45.116;21.296;2022-12-07T07:00:55;231.10;2252.80
55008;DHT22;40902;45.116;21.296;2022-12-07T07:03:21;231.10;2252.80
55008;DHT22;40902;45.116;21.296;2022-12-07T07:05:47;231.10;2252.80
55008;DHT22;40902;45.116;21.296;2022-12-07T07:08:13;231.10;2252.80
55008;DHT22;40902;45.116;21.296;2022-12-07T07:10:39;231.20;2252.80
55008;DHT22;40902;45.116;21.296;2022-12-07T07:13:05;231.20;2252.80
55008;DHT22;40902;45.116;21.296;2022-12-07T07:15:31;231.30;2252.80
55008;DHT22;40902;45.116;21.296;2022-12-07T07:17:57;256.00;2252.80
55008;DHT22;40902;45.116;21.296;2022-12-07T07:20:23;231.20;2252.80
55008;DHT22;40902;45.116;21.296;2022-12-07T07:22:49;231.20;2252.80
55008;DHT22;40902;45.116;21.296;2022-12-07T07:25:15;231.20;2252.80
55008;DHT22;40902;45.116;21.296;2022-12-07T07:27:41;231.10;2252.80
55008;DHT22;40902;45.116;21.296;2022-12-07T07:30:12;231.10;2252.80
55008;DHT22;40902;45.116;21.296;2022-12-07T07:32:38;231.00;2252.80
55008;DHT22;40902;45.116;21.296;2022-12-07T07:35:04;230.90;2252.80
55008;DHT22;40902;45.116;21.296;2022-12-07T07:37:29;231.00;2252.80
55008;DHT22;40902;45.116;21.296;2022-12-07T07:39:55;230.90;2252.80
55008;DHT22;40902;45.116;21.296;2022-12-07T07:42:23;230.90;2252.80
55008;DHT22;40902;45.116;21.296;2022-12-07T07:44:48;230.90;2252.80
55008;DHT22;40902;45.116;21.296;2022-12-07T07:47:14;230.80;2252.80
55008;DHT22;40902;45.116;21.296;2022-12-07T07:49:40;230.70;2252.80
55008;DHT22;40902;45.116;21.296;2022-12-07T07:52:06;230.70;2252.80
55008;DHT22;40902;45.116;21.296;2022-12-07T07:54:32;230.70;2252.80
55008;DHT22;40902;45.116;21.296;2022-12-07T07:56:57;230.70;2252.80
55008;DHT22;40902;45.116;21.296;2022-12-07T07:59:23;230.80;2252.80
55008;DHT22;40902;45.116;21.296;2022-12-07T08:01:50;230.90;2252.80
55008;DHT22;40902;45.116;21.296;2022-12-07T08:04:15;231.00;2252.80
55008;DHT22;40902;45.116;21.296;2022-12-07T08:06:41;231.00;2252.80
55008;DHT22;40902;45.116;21.296;2022-12-07T08:09:08;231.10;2252.80
55008;DHT22;40902;45.116;21.296;2022-12-07T08:11:34;231.10;2252.80
55008;DHT22;40902;45.116;21.296;2022-12-07T08:14:01;231.10;2252.80
55008;DHT22;40902;45.116;21.296;2022-12-07T08:16:27;231.00;2252.80
55008;DHT22;40902;45.116;21.296;2022-12-07T08:18:53;231.00;2252.80
55008;DHT22;40902;45.116;21.296;2022-12-07T08:21:19;231.00;2252.80
55008;DHT22;40902;45.116;21.296;2022-12-07T08:23:47;230.90;2252.80
55008;DHT22;40902;45.116;21.296;2022-12-07T08:26:15;231.00;2252.80
55008;DHT22;40902;45.116;21.296;2022-12-07T08:28:41;231.00;2252.80
55008;DHT22;40902;45.116;21.296;2022-12-07T08:31:13;231.00;2252.80
55008;DHT22;40902;45.116;21.296;2022-12-07T08:33:39;231.00;2252.80
55008;DHT22;40902;45.116;21.296;2022-12-07T08:36:10;231.00;2252.80
55008;DHT22;40902;45.116;21.296;2022-12-07T08:38:38;231.00;2252.80
55008;DHT22;40902;45.116;21.296;2022-12-07T08:41:04;231.10;2252.80
55008;DHT22;40902;45.116;21.296;2022-12-07T08:43:30;231.10;2252.80
55008;DHT22;40902;45.116;21.296;2022-12-07T08:51:18;231.20;2252.80
55008;DHT22;40902;45.116;21.296;2022-12-07T08:53:44;231.20;2252.80
55008;DHT22;40902;45.116;21.296;2022-12-07T08:56:11;231.20;2252.80
55008;DHT22;40902;45.116;21.296;2022-12-07T08:58:38;231.20;2252.80
55008;DHT22;40902;45.116;21.296;2022-12-07T09:01:04;256.00;2252.80
55008;DHT22;40902;45.116;21.296;2022-12-07T09:03:31;256.10;2252.80
55008;DHT22;40902;45.116;21.296;2022-12-07T09:05:58;256.10;2252.80
55008;DHT22;40902;45.116;21.296;2022-12-07T09:08:29;256.20;2252.80
55008;DHT22;40902;45.116;21.296;2022-12-07T09:10:56;256.10;2252.80
55008;DHT22;40902;45.116;21.296;2022-12-07T09:13:22;256.00;2252.80
55008;DHT22;40902;45.116;21.296;2022-12-07T09:15:48;231.20;2252.80
55008;DHT22;40902;45.116;21.296;2022-12-07T09:18:14;231.00;2252.80
55008;DHT22;40902;45.116;21.296;2022-12-07T09:20:40;230.90;2252.80
55008;DHT22;40902;45.116;21.296;2022-12-07T09:23:07;230.80;2252.80
55008;DHT22;40902;45.116;21.296;2022-12-07T09:25:33;230.80;2252.80
55008;DHT22;40902;45.116;21.296;2022-12-07T09:28:00;230.70;2252.80
55008;DHT22;40902;45.116;21.296;2022-12-07T09:30:27;230.60;2252.80
55008;DHT22;40902;45.116;21.296;2022-12-07T09:32:54;230.60;2252.80
55008;DHT22;40902;45.116;21.296;2022-12-07T09:35:20;230.80;2252.80
55008;DHT22;40902;45.116;21.296;2022-12-07T09:37:46;230.60;2252.80
55008;DHT22;40902;45.116;21.296;2022-12-07T09:40:13;230.60;2252.80
55008;DHT22;40902;45.116;21.296;2022-12-07T09:42:44;230.60;2252.80
55008;DHT22;40902;45.116;21.296;2022-12-07T09:45:20;230.60;2252.80
55008;DHT22;40902;45.116;21.296;2022-12-07T09:47:46;230.60;2252.80
55008;DHT22;40902;45.116;21.296;2022-12-07T09:50:20;230.60;2252.80
55008;DHT22;40902;45.116;21.296;2022-12-07T09:52:47;230.60;2252.80
55008;DHT22;40902;45.116;21.296;2022-12-07T09:55:33;230.50;2252.80
55008;DHT22;40902;45.116;21.296;2022-12-07T09:58:01;230.50;2252.80
55008;DHT22;40902;45.116;21.296;2022-12-07T10:00:27;230.50;2252.80
55008;DHT22;40902;45.116;21.296;2022-12-07T10:03:00;230.50;2252.80
55008;DHT22;40902;45.116;21.296;2022-12-07T10:07:56;230.70;2252.80
55008;DHT22;40902;45.116;21.296;2022-12-07T10:10:30;230.80;2252.80
55008;DHT22;40902;45.116;21.296;2022-12-07T10:13:06;230.90;2252.80
55008;DHT22;40902;45.116;21.296;2022-12-07T10:15:47;230.90;2252.80
55008;DHT22;40902;45.116;21.296;2022-12-07T10:18:33;231.10;2252.80
55008;DHT22;40902;45.116;21.296;2022-12-07T10:23:27;231.20;2252.80
55008;DHT22;40902;45.116;21.296;2022-12-07T10:25:54;231.30;2252.80
55008;DHT22;40902;45.116;21.296;2022-12-07T10:28:21;256.10;2252.80
55008;DHT22;40902;45.116;21.296;2022-12-07T10:31:15;256.20;2252.80
55008;DHT22;40902;45.116;21.296;2022-12-07T10:33:53;256.30;2252.80
55008;DHT22;40902;45.116;21.296;2022-12-07T10:41:28;256.10;2252.80
55008;DHT22;40902;45.116;21.296;2022-12-07T10:43:57;231.30;2252.80
55008;DHT22;40902;45.116;21.296;2022-12-07T10:52:06;256.00;2252.80
55008;DHT22;40902;45.116;21.296;2022-12-07T10:54:41;256.00;2252.80
55008;DHT22;40902;45.116;21.296;2022-12-07T10:57:19;256.00;2252.80
55008;DHT22;40902;45.116;21.296;2022-12-07T11:08:02;231.30;2252.80
55008;DHT22;40902;45.116;21.296;2022-12-07T11:21:27;231.30;2252.80
55008;DHT22;40902;45.116;21.296;2022-12-07T11:24:02;231.30;2252.80
55008;DHT22;40902;45.116;21.296;2022-12-07T11:37:45;256.20;2252.80
55008;DHT22;40902;45.116;21.296;2022-12-07T11:40:28;256.30;2252.80
55008;DHT22;40902;45.116;21.296;2022-12-07T11:45:37;256.40;2252.80
55008;DHT22;40902;45.116;21.296;2022-12-07T11:50:45;256.40;2252.80
55008;DHT22;40902;45.116;21.296;2022-12-07T12:03:58;256.40;2252.80
55008;DHT22;40902;45.116;21.296;2022-12-07T12:06:26;256.40;2252.80
55008;DHT22;40902;45.116;21.296;2022-12-07T12:09:12;256.50;2252.80
55008;DHT22;40902;45.116;21.296;2022-12-07T12:12:16;256.50;2252.80
55008;DHT22;40902;45.116;21.296;2022-12-07T12:18:19;256.40;2252.80
55008;DHT22;40902;45.116;21.296;2022-12-07T12:20:57;256.40;2252.80
55008;DHT22;40902;45.116;21.296;2022-12-07T12:23:36;256.40;2252.80
55008;DHT22;40902;45.116;21.296;2022-12-07T12:26:07;256.40;2252.80
55008;DHT22;40902;45.116;21.296;2022-12-07T12:31:30;256.40;2252.80
55008;DHT22;40902;45.116;21.296;2022-12-07T12:34:38;256.40;2252.80
55008;DHT22;40902;45.116;21.296;2022-12-07T12:42:51;256.40;2252.80
55008;DHT22;40902;45.116;21.296;2022-12-07T12:45:21;256.40;2252.80
55008;DHT22;40902;45.116;21.296;2022-12-07T12:48:01;256.40;2252.80
55008;DHT22;40902;45.116;21.296;2022-12-07T12:52:59;256.40;2252.80
55008;DHT22;40902;45.116;21.296;2022-12-07T12:58:33;256.20;2252.80
55008;DHT22;40902;45.116;21.296;2022-12-07T13:03:58;231.10;2252.80
55008;DHT22;40902;45.116;21.296;2022-12-07T13:08:50;231.10;2252.80
55008;DHT22;40902;45.116;21.296;2022-12-07T13:11:32;231.00;2252.80
55008;DHT22;40902;45.116;21.296;2022-12-07T13:17:02;230.80;2252.80
55008;DHT22;40902;45.116;21.296;2022-12-07T13:25:12;230.70;2252.80
55008;DHT22;40902;45.116;21.296;2022-12-07T13:27:40;230.60;2252.80
55008;DHT22;40902;45.116;21.296;2022-12-07T13:30:19;230.60;2252.80
55008;DHT22;40902;45.116;21.296;2022-12-07T13:32:56;230.60;2252.80
55008;DHT22;40902;45.116;21.296;2022-12-07T13:35:31;230.60;2252.80
55008;DHT22;40902;45.116;21.296;2022-12-07T13:37:57;230.60;2252.80
55008;DHT22;40902;45.116;21.296;2022-12-07T13:40:24;230.60;2252.80
55008;DHT22;40902;45.116;21.296;2022-12-07T13:43:01;230.60;2252.80
55008;DHT22;40902;45.116;21.296;2022-12-07T13:45:30;230.50;2252.80
55008;DHT22;40902;45.116;21.296;2022-12-07T13:48:35;230.50;2252.80
55008;DHT22;40902;45.116;21.296;2022-12-07T13:51:03;230.60;2252.80
55008;DHT22;40902;45.116;21.296;2022-12-07T13:53:30;230.60;2252.80
55008;DHT22;40902;45.116;21.296;2022-12-07T13:55:57;230.60;2252.80
55008;DHT22;40902;45.116;21.296;2022-12-07T13:58:24;230.60;2252.80
55008;DHT22;40902;45.116;21.296;2022-12-07T14:00:51;230.50;2252.80
55008;DHT22;40902;45.116;21.296;2022-12-07T14:03:22;230.50;2252.80
55008;DHT22;40902;45.116;21.296;2022-12-07T14:06:25;230.50;2252.80
55008;DHT22;40902;45.116;21.296;2022-12-07T14:08:58;230.40;2252.80
55008;DHT22;40902;45.116;21.296;2022-12-07T14:11:31;230.40;2252.80
55008;DHT22;40902;45.116;21.296;2022-12-07T14:14:01;230.40;2252.80
55008;DHT22;40902;45.116;21.296;2022-12-07T14:18:57;230.50;2252.80
55008;DHT22;40902;45.116;21.296;2022-12-07T14:21:33;230.50;2252.80
55008;DHT22;40902;45.116;21.296;2022-12-07T14:26:33;230.60;2252.80
55008;DHT22;40902;45.116;21.296;2022-12-07T14:29:21;230.60;2252.80
55008;DHT22;40902;45.116;21.296;2022-12-07T14:31:48;230.60;2252.80
55008;DHT22;40902;45.116;21.296;2022-12-07T14:34:14;230.60;2252.80
55008;DHT22;40902;45.116;21.296;2022-12-07T14:36:40;230.60;2252.80
55008;DHT22;40902;45.116;21.296;2022-12-07T14:39:05;230.60;2252.80
55008;DHT22;40902;45.116;21.296;2022-12-07T14:41:31;230.70;2252.80
55008;DHT22;40902;45.116;21.296;2022-12-07T14:44:15;230.70;2252.80
55008;DHT22;40902;45.116;21.296;2022-12-07T14:46:41;230.70;2252.80
55008;DHT22;40902;45.116;21.296;2022-12-07T14:49:07;230.80;2252.80
55008;DHT22;40902;45.116;21.296;2022-12-07T14:51:33;230.80;2252.80
55008;DHT22;40902;45.116;21.296;2022-12-07T14:54:01;230.90;2252.80
55008;DHT22;40902;45.116;21.296;2022-12-07T14:56:27;231.00;2252.80
55008;DHT22;40902;45.116;21.296;2022-12-07T14:58:53;231.00;2252.80
55008;DHT22;40902;45.116;21.296;2022-12-07T15:01:19;231.00;2252.80
55008;DHT22;40902;45.116;21.296;2022-12-07T15:03:45;231.00;2252.80
55008;DHT22;40902;45.116;21.296;2022-12-07T15:06:14;231.10;2252.80
55008;DHT22;40902;45.116;21.296;2022-12-07T15:08:40;231.10;2252.80
55008;DHT22;40902;45.116;21.296;2022-12-07T15:11:11;231.20;2252.80
55008;DHT22;40902;45.116;21.296;2022-12-07T15:13:37;231.30;2252.80
55008;DHT22;40902;45.116;21.296;2022-12-07T15:16:21;256.00;2252.80
55008;DHT22;40902;45.116;21.296;2022-12-07T15:18:47;256.10;2252.80
55008;DHT22;40902;45.116;21.296;2022-12-07T15:21:14;256.10;2252.80
55008;DHT22;40902;45.116;21.296;2022-12-07T15:23:40;256.20;2252.80
55008;DHT22;40902;45.116;21.296;2022-12-07T15:26:06;256.20;2252.80
55008;DHT22;40902;45.116;21.296;2022-12-07T15:28:33;256.20;2252.80
55008;DHT22;40902;45.116;21.296;2022-12-07T15:30:59;256.20;2252.80
55008;DHT22;40902;45.116;21.296;2022-12-07T15:33:25;256.10;2252.80
55008;DHT22;40902;45.116;21.296;2022-12-07T15:35:50;256.00;2252.80
55008;DHT22;40902;45.116;21.296;2022-12-07T15:38:16;256.10;2252.80
55008;DHT22;40902;45.116;21.296;2022-12-07T15:40:42;256.10;2252.80
55008;DHT22;40902;45.116;21.296;2022-12-07T15:43:11;256.20;2252.80
55008;DHT22;40902;45.116;21.296;2022-12-07T15:45:56;256.10;2252.80
55008;DHT22;40902;45.116;21.296;2022-12-07T15:48:22;256.10;2252.80
55008;DHT22;40902;45.116;21.296;2022-12-07T15:50:48;256.10;2252.80
55008;DHT22;40902;45.116;21.296;2022-12-07T15:53:14;256.00;2252.80
55008;DHT22;40902;45.116;21.296;2022-12-07T15:55:40;256.00;2252.80
55008;DHT22;40902;45.116;21.296;2022-12-07T15:58:06;231.30;2252.80
55008;DHT22;40902;45.116;21.296;2022-12-07T16:00:32;231.30;2252.80
55008;DHT22;40902;45.116;21.296;2022-12-07T16:02:57;256.00;2252.80
55008;DHT22;40902;45.116;21.296;2022-12-07T16:05:23;231.30;2252.80
55008;DHT22;40902;45.116;21.296;2022-12-07T16:07:49;256.00;2252.80
55008;DHT22;40902;45.116;21.296;2022-12-07T16:10:14;256.00;2252.80
55008;DHT22;40902;45.116;21.296;2022-12-07T16:12:40;256.00;2252.80
55008;DHT22;40902;45.116;21.296;2022-12-07T16:15:06;256.10;2252.80
55008;DHT22;40902;45.116;21.296;2022-12-07T16:17:32;256.10;2252.80
55008;DHT22;40902;45.116;21.296;2022-12-07T16:19:58;256.20;2252.80
55008;DHT22;40902;45.116;21.296;2022-12-07T16:22:24;256.20;2252.80
55008;DHT22;40902;45.116;21.296;2022-12-07T16:24:49;256.20;2252.80
55008;DHT22;40902;45.116;21.296;2022-12-07T16:27:15;256.10;2252.80
55008;DHT22;40902;45.116;21.296;2022-12-07T16:29:41;256.00;2252.80
55008;DHT22;40902;45.116;21.296;2022-12-07T16:32:07;256.00;2252.80
55008;DHT22;40902;45.116;21.296;2022-12-07T16:34:33;231.30;2252.80
55008;DHT22;40902;45.116;21.296;2022-12-07T16:36:58;231.20;2252.80
55008;DHT22;40902;45.116;21.296;2022-12-07T16:39:24;231.20;2252.80
55008;DHT22;40902;45.116;21.296;2022-12-07T16:41:50;231.10;2252.80
55008;DHT22;40902;45.116;21.296;2022-12-07T16:44:16;231.10;2252.80
55008;DHT22;40902;45.116;21.296;2022-12-07T16:46:42;231.10;2252.80
55008;DHT22;40902;45.116;21.296;2022-12-07T16:49:15;231.00;2252.80
55008;DHT22;40902;45.116;21.296;2022-12-07T16:51:41;231.00;2252.80
55008;DHT22;40902;45.116;21.296;2022-12-07T16:54:10;231.00;2252.80
55008;DHT22;40902;45.116;21.296;2022-12-07T16:56:36;230.80;2252.80
55008;DHT22;40902;45.116;21.296;2022-12-07T16:59:02;230.80;2252.80
55008;DHT22;40902;45.116;21.296;2022-12-07T17:01:28;230.70;2252.80
55008;DHT22;40902;45.116;21.296;2022-12-07T17:03:56;230.70;2252.80
55008;DHT22;40902;45.116;21.296;2022-12-07T17:06:23;230.70;2252.80
55008;DHT22;40902;45.116;21.296;2022-12-07T17:08:50;230.70;2252.80